Terminal Aerodrome Forecast
Issued by NWS Louisville, KY

Home | Current Version | Previous Version | Text Only | Print | Product List | Glossary On
Versions: 1 2 3 4 5 6 7 8 9 10 11 12 13 14 15
886
FTUS43 KLMK 211121
TAFLEX
TAF
KLEX 211121Z 2112/2212 VRB05KT 6SM BR SCT004 BKN009
      TEMPO 2112/2114 3SM BR BKN004
     FM211600 29006KT 6SM BR VCSH BKN012
     FM211900 32009KT P6SM VCSH BKN022
     FM212200 33007KT P6SM SCT030=

USA.gov is the U.S. government's official web portal to all federal, state and local government web resources and services.